sensor_id;sensor_type;location;lat;lon;timestamp;P1;durP1;ratioP1;P2;durP2;ratioP2
70535;SDS011;58089;48.752;11.338;2022-08-19T00:01:02;23.73;;;18.17;;
70535;SDS011;58089;48.752;11.338;2022-08-19T00:03:28;25.42;;;19.73;;
70535;SDS011;58089;48.752;11.338;2022-08-19T00:05:53;25.83;;;19.30;;
70535;SDS011;58089;48.752;11.338;2022-08-19T00:08:18;24.20;;;18.53;;
70535;SDS011;58089;48.752;11.338;2022-08-19T00:10:43;22.50;;;18.17;;
70535;SDS011;58089;48.752;11.338;2022-08-19T00:13:10;25.40;;;18.60;;
70535;SDS011;58089;48.752;11.338;2022-08-19T00:15:35;20.83;;;17.20;;
70535;SDS011;58089;48.752;11.338;2022-08-19T00:18:01;23.03;;;17.73;;
70535;SDS011;58089;48.752;11.338;2022-08-19T00:20:27;22.23;;;17.47;;
70535;SDS011;58089;48.752;11.338;2022-08-19T00:22:52;20.93;;;16.90;;
70535;SDS011;58089;48.752;11.338;2022-08-19T00:25:17;21.00;;;18.17;;
70535;SDS011;58089;48.752;11.338;2022-08-19T00:27:43;22.25;;;17.98;;
70535;SDS011;58089;48.752;11.338;2022-08-19T00:30:08;22.33;;;18.07;;
70535;SDS011;58089;48.752;11.338;2022-08-19T00:32:35;23.00;;;17.83;;
70535;SDS011;58089;48.752;11.338;2022-08-19T00:35:01;25.10;;;19.17;;
70535;SDS011;58089;48.752;11.338;2022-08-19T00:37:26;23.43;;;18.90;;
70535;SDS011;58089;48.752;11.338;2022-08-19T00:39:51;26.20;;;18.83;;
70535;SDS011;58089;48.752;11.338;2022-08-19T00:42:17;24.80;;;18.20;;
70535;SDS011;58089;48.752;11.338;2022-08-19T00:44:43;29.20;;;20.75;;
70535;SDS011;58089;48.752;11.338;2022-08-19T00:47:08;23.33;;;18.93;;
70535;SDS011;58089;48.752;11.338;2022-08-19T00:52:00;25.57;;;19.87;;
70535;SDS011;58089;48.752;11.338;2022-08-19T00:54:26;29.90;;;22.38;;
70535;SDS011;58089;48.752;11.338;2022-08-19T00:56:51;30.70;;;22.63;;
70535;SDS011;58089;48.752;11.338;2022-08-19T00:59:17;28.87;;;22.30;;
70535;SDS011;58089;48.752;11.338;2022-08-19T01:01:43;28.52;;;22.23;;
70535;SDS011;58089;48.752;11.338;2022-08-19T01:04:09;27.13;;;21.13;;
70535;SDS011;58089;48.752;11.338;2022-08-19T01:06:37;27.47;;;21.67;;
70535;SDS011;58089;48.752;11.338;2022-08-19T01:09:03;28.77;;;22.15;;
70535;SDS011;58089;48.752;11.338;2022-08-19T01:11:30;28.15;;;22.27;;
70535;SDS011;58089;48.752;11.338;2022-08-19T01:13:55;28.65;;;22.50;;
70535;SDS011;58089;48.752;11.338;2022-08-19T01:16:21;29.53;;;21.50;;
70535;SDS011;58089;48.752;11.338;2022-08-19T01:18:47;32.83;;;20.60;;
70535;SDS011;58089;48.752;11.338;2022-08-19T01:21:18;28.40;;;20.93;;
70535;SDS011;58089;48.752;11.338;2022-08-19T01:23:44;29.38;;;22.23;;
70535;SDS011;58089;48.752;11.338;2022-08-19T01:26:11;29.30;;;21.33;;
70535;SDS011;58089;48.752;11.338;2022-08-19T01:28:37;28.13;;;20.75;;
70535;SDS011;58089;48.752;11.338;2022-08-19T01:31:02;26.23;;;20.33;;
70535;SDS011;58089;48.752;11.338;2022-08-19T01:33:27;30.30;;;21.53;;
70535;SDS011;58089;48.752;11.338;2022-08-19T01:35:52;24.60;;;19.17;;
70535;SDS011;58089;48.752;11.338;2022-08-19T01:38:25;24.80;;;19.40;;
70535;SDS011;58089;48.752;11.338;2022-08-19T01:40:50;26.98;;;19.75;;
70535;SDS011;58089;48.752;11.338;2022-08-19T01:43:15;28.80;;;20.67;;
70535;SDS011;58089;48.752;11.338;2022-08-19T01:45:41;25.03;;;19.43;;
70535;SDS011;58089;48.752;11.338;2022-08-19T01:48:06;28.90;;;20.58;;
70535;SDS011;58089;48.752;11.338;2022-08-19T01:50:32;26.83;;;19.63;;
70535;SDS011;58089;48.752;11.338;2022-08-19T01:52:58;29.45;;;21.13;;
70535;SDS011;58089;48.752;11.338;2022-08-19T01:55:24;27.33;;;20.27;;
70535;SDS011;58089;48.752;11.338;2022-08-19T01:57:50;24.67;;;18.80;;
70535;SDS011;58089;48.752;11.338;2022-08-19T02:00:17;27.95;;;21.00;;
70535;SDS011;58089;48.752;11.338;2022-08-19T02:02:43;29.48;;;21.40;;
70535;SDS011;58089;48.752;11.338;2022-08-19T02:05:08;29.37;;;22.47;;
70535;SDS011;58089;48.752;11.338;2022-08-19T02:07:34;27.57;;;19.83;;
70535;SDS011;58089;48.752;11.338;2022-08-19T02:10:01;28.30;;;20.58;;
70535;SDS011;58089;48.752;11.338;2022-08-19T02:12:28;29.90;;;22.52;;
70535;SDS011;58089;48.752;11.338;2022-08-19T02:14:53;29.67;;;22.07;;
70535;SDS011;58089;48.752;11.338;2022-08-19T02:17:18;27.00;;;21.17;;
70535;SDS011;58089;48.752;11.338;2022-08-19T02:19:44;25.17;;;20.00;;
70535;SDS011;58089;48.752;11.338;2022-08-19T02:22:09;22.97;;;18.17;;
70535;SDS011;58089;48.752;11.338;2022-08-19T02:24:34;25.53;;;19.03;;
70535;SDS011;58089;48.752;11.338;2022-08-19T02:26:59;27.60;;;20.17;;
70535;SDS011;58089;48.752;11.338;2022-08-19T02:29:24;29.40;;;19.70;;
70535;SDS011;58089;48.752;11.338;2022-08-19T02:31:49;29.87;;;20.93;;
70535;SDS011;58089;48.752;11.338;2022-08-19T02:34:15;31.90;;;22.37;;
70535;SDS011;58089;48.752;11.338;2022-08-19T02:36:41;26.10;;;19.92;;
70535;SDS011;58089;48.752;11.338;2022-08-19T02:39:06;31.57;;;21.63;;
70535;SDS011;58089;48.752;11.338;2022-08-19T02:41:32;26.77;;;20.27;;
70535;SDS011;58089;48.752;11.338;2022-08-19T02:43:59;26.15;;;20.00;;
70535;SDS011;58089;48.752;11.338;2022-08-19T02:46:27;26.00;;;19.40;;
70535;SDS011;58089;48.752;11.338;2022-08-19T02:48:53;24.73;;;18.83;;
70535;SDS011;58089;48.752;11.338;2022-08-19T02:51:19;29.23;;;20.77;;
70535;SDS011;58089;48.752;11.338;2022-08-19T02:53:45;35.10;;;22.50;;
70535;SDS011;58089;48.752;11.338;2022-08-19T02:56:10;30.08;;;22.27;;
70535;SDS011;58089;48.752;11.338;2022-08-19T02:58:36;28.20;;;19.93;;
70535;SDS011;58089;48.752;11.338;2022-08-19T03:01:01;28.35;;;20.70;;
70535;SDS011;58089;48.752;11.338;2022-08-19T03:03:26;27.53;;;19.40;;
70535;SDS011;58089;48.752;11.338;2022-08-19T03:05:52;27.97;;;19.60;;
70535;SDS011;58089;48.752;11.338;2022-08-19T03:08:27;27.33;;;20.08;;
70535;SDS011;58089;48.752;11.338;2022-08-19T03:10:52;25.27;;;19.90;;
70535;SDS011;58089;48.752;11.338;2022-08-19T03:13:18;33.63;;;21.73;;
70535;SDS011;58089;48.752;11.338;2022-08-19T03:15:43;29.30;;;21.47;;
70535;SDS011;58089;48.752;11.338;2022-08-19T03:18:09;32.70;;;20.95;;
70535;SDS011;58089;48.752;11.338;2022-08-19T03:20:39;28.23;;;19.60;;
70535;SDS011;58089;48.752;11.338;2022-08-19T03:23:04;30.52;;;21.50;;
70535;SDS011;58089;48.752;11.338;2022-08-19T03:25:30;30.15;;;20.95;;
70535;SDS011;58089;48.752;11.338;2022-08-19T03:27:55;29.25;;;22.00;;
70535;SDS011;58089;48.752;11.338;2022-08-19T03:30:20;31.73;;;21.63;;
70535;SDS011;58089;48.752;11.338;2022-08-19T03:32:45;30.27;;;21.33;;
70535;SDS011;58089;48.752;11.338;2022-08-19T03:35:10;31.47;;;21.50;;
70535;SDS011;58089;48.752;11.338;2022-08-19T03:37:35;33.83;;;22.13;;
70535;SDS011;58089;48.752;11.338;2022-08-19T03:40:01;31.60;;;22.77;;
70535;SDS011;58089;48.752;11.338;2022-08-19T03:42:28;30.08;;;21.90;;
70535;SDS011;58089;48.752;11.338;2022-08-19T03:44:54;29.10;;;19.63;;
70535;SDS011;58089;48.752;11.338;2022-08-19T03:47:19;26.40;;;19.27;;
70535;SDS011;58089;48.752;11.338;2022-08-19T03:49:44;29.88;;;21.05;;
70535;SDS011;58089;48.752;11.338;2022-08-19T03:52:09;28.27;;;20.53;;
70535;SDS011;58089;48.752;11.338;2022-08-19T03:54:35;29.90;;;21.05;;
70535;SDS011;58089;48.752;11.338;2022-08-19T03:57:01;32.13;;;22.33;;
70535;SDS011;58089;48.752;11.338;2022-08-19T03:59:27;32.77;;;22.17;;
70535;SDS011;58089;48.752;11.338;2022-08-19T04:01:54;34.45;;;22.55;;
70535;SDS011;58089;48.752;11.338;2022-08-19T04:04:19;33.80;;;21.38;;
70535;SDS011;58089;48.752;11.338;2022-08-19T04:06:44;29.90;;;20.50;;
70535;SDS011;58089;48.752;11.338;2022-08-19T04:09:12;34.28;;;22.35;;
70535;SDS011;58089;48.752;11.338;2022-08-19T04:11:38;30.30;;;20.97;;
70535;SDS011;58089;48.752;11.338;2022-08-19T04:14:13;29.85;;;20.67;;
70535;SDS011;58089;48.752;11.338;2022-08-19T04:16:39;34.03;;;23.73;;
70535;SDS011;58089;48.752;11.338;2022-08-19T04:19:04;31.83;;;21.33;;
70535;SDS011;58089;48.752;11.338;2022-08-19T04:21:30;32.50;;;22.17;;
70535;SDS011;58089;48.752;11.338;2022-08-19T04:23:55;35.33;;;23.38;;
70535;SDS011;58089;48.752;11.338;2022-08-19T04:26:22;33.33;;;23.53;;
70535;SDS011;58089;48.752;11.338;2022-08-19T04:28:48;28.60;;;20.05;;
70535;SDS011;58089;48.752;11.338;2022-08-19T04:31:21;30.20;;;20.80;;
70535;SDS011;58089;48.752;11.338;2022-08-19T04:33:47;31.65;;;22.35;;
70535;SDS011;58089;48.752;11.338;2022-08-19T04:36:20;27.37;;;20.10;;
70535;SDS011;58089;48.752;11.338;2022-08-19T04:38:45;29.87;;;21.07;;
70535;SDS011;58089;48.752;11.338;2022-08-19T04:41:10;34.25;;;22.92;;
70535;SDS011;58089;48.752;11.338;2022-08-19T04:43:54;28.97;;;19.13;;
70535;SDS011;58089;48.752;11.338;2022-08-19T04:46:19;30.43;;;21.67;;
70535;SDS011;58089;48.752;11.338;2022-08-19T04:48:45;31.00;;;22.23;;
70535;SDS011;58089;48.752;11.338;2022-08-19T04:51:10;36.03;;;21.95;;
70535;SDS011;58089;48.752;11.338;2022-08-19T04:53:38;27.37;;;18.83;;
70535;SDS011;58089;48.752;11.338;2022-08-19T04:56:05;30.17;;;19.60;;
70535;SDS011;58089;48.752;11.338;2022-08-19T04:58:31;28.70;;;20.42;;
70535;SDS011;58089;48.752;11.338;2022-08-19T05:00:57;28.90;;;19.23;;
70535;SDS011;58089;48.752;11.338;2022-08-19T05:03:24;28.27;;;19.75;;
70535;SDS011;58089;48.752;11.338;2022-08-19T05:05:49;29.77;;;19.93;;
70535;SDS011;58089;48.752;11.338;2022-08-19T05:08:16;32.73;;;23.37;;
70535;SDS011;58089;48.752;11.338;2022-08-19T05:10:45;31.27;;;21.10;;
70535;SDS011;58089;48.752;11.338;2022-08-19T05:13:12;33.10;;;21.85;;
70535;SDS011;58089;48.752;11.338;2022-08-19T05:15:37;27.00;;;19.83;;
70535;SDS011;58089;48.752;11.338;2022-08-19T05:18:03;26.60;;;18.87;;
70535;SDS011;58089;48.752;11.338;2022-08-19T05:20:46;26.70;;;18.52;;
70535;SDS011;58089;48.752;11.338;2022-08-19T05:23:31;25.30;;;18.40;;
70535;SDS011;58089;48.752;11.338;2022-08-19T05:25:56;29.03;;;20.63;;
70535;SDS011;58089;48.752;11.338;2022-08-19T05:28:21;27.17;;;19.92;;
70535;SDS011;58089;48.752;11.338;2022-08-19T05:30:46;26.90;;;18.73;;
70535;SDS011;58089;48.752;11.338;2022-08-19T05:33:13;27.20;;;19.48;;
70535;SDS011;58089;48.752;11.338;2022-08-19T05:35:38;30.93;;;22.13;;
70535;SDS011;58089;48.752;11.338;2022-08-19T05:38:04;29.93;;;19.63;;
70535;SDS011;58089;48.752;11.338;2022-08-19T05:40:29;31.85;;;20.48;;
70535;SDS011;58089;48.752;11.338;2022-08-19T05:42:54;25.15;;;18.50;;
70535;SDS011;58089;48.752;11.338;2022-08-19T05:45:20;27.00;;;18.40;;
70535;SDS011;58089;48.752;11.338;2022-08-19T05:47:46;25.27;;;19.17;;
70535;SDS011;58089;48.752;11.338;2022-08-19T05:50:11;27.73;;;19.10;;
70535;SDS011;58089;48.752;11.338;2022-08-19T05:52:37;24.23;;;17.73;;
70535;SDS011;58089;48.752;11.338;2022-08-19T05:55:03;26.13;;;19.40;;
70535;SDS011;58089;48.752;11.338;2022-08-19T05:57:28;29.10;;;20.33;;
70535;SDS011;58089;48.752;11.338;2022-08-19T05:59:54;27.03;;;18.73;;
70535;SDS011;58089;48.752;11.338;2022-08-19T06:02:19;24.33;;;17.77;;
70535;SDS011;58089;48.752;11.338;2022-08-19T06:04:45;27.60;;;20.03;;
70535;SDS011;58089;48.752;11.338;2022-08-19T06:07:10;26.23;;;18.63;;
70535;SDS011;58089;48.752;11.338;2022-08-19T06:09:35;27.00;;;21.07;;
70535;SDS011;58089;48.752;11.338;2022-08-19T06:12:02;28.38;;;19.88;;
70535;SDS011;58089;48.752;11.338;2022-08-19T06:14:29;25.42;;;17.20;;
70535;SDS011;58089;48.752;11.338;2022-08-19T06:16:55;24.73;;;17.50;;
70535;SDS011;58089;48.752;11.338;2022-08-19T06:19:21;24.77;;;17.07;;
70535;SDS011;58089;48.752;11.338;2022-08-19T06:21:49;27.17;;;19.42;;
70535;SDS011;58089;48.752;11.338;2022-08-19T06:24:16;26.17;;;19.40;;
70535;SDS011;58089;48.752;11.338;2022-08-19T06:26:43;25.40;;;18.90;;
70535;SDS011;58089;48.752;11.338;2022-08-19T06:29:09;21.73;;;17.08;;
70535;SDS011;58089;48.752;11.338;2022-08-19T06:31:35;23.37;;;17.70;;
70535;SDS011;58089;48.752;11.338;2022-08-19T06:34:02;22.33;;;15.70;;
70535;SDS011;58089;48.752;11.338;2022-08-19T06:36:32;24.33;;;18.58;;
70535;SDS011;58089;48.752;11.338;2022-08-19T06:38:59;25.90;;;19.73;;
70535;SDS011;58089;48.752;11.338;2022-08-19T06:41:25;29.37;;;21.57;;
70535;SDS011;58089;48.752;11.338;2022-08-19T06:43:50;28.50;;;21.38;;
70535;SDS011;58089;48.752;11.338;2022-08-19T06:46:16;30.40;;;20.60;;
70535;SDS011;58089;48.752;11.338;2022-08-19T06:48:42;26.23;;;19.48;;
70535;SDS011;58089;48.752;11.338;2022-08-19T06:51:07;29.77;;;21.20;;
70535;SDS011;58089;48.752;11.338;2022-08-19T06:53:33;29.40;;;21.40;;
70535;SDS011;58089;48.752;11.338;2022-08-19T06:55:58;30.58;;;20.55;;
70535;SDS011;58089;48.752;11.338;2022-08-19T06:58:27;24.17;;;17.92;;
70535;SDS011;58089;48.752;11.338;2022-08-19T07:00:56;23.23;;;17.88;;
70535;SDS011;58089;48.752;11.338;2022-08-19T07:03:25;21.63;;;16.73;;
70535;SDS011;58089;48.752;11.338;2022-08-19T07:05:51;22.73;;;16.92;;
70535;SDS011;58089;48.752;11.338;2022-08-19T07:08:16;23.77;;;17.10;;
70535;SDS011;58089;48.752;11.338;2022-08-19T07:10:44;22.00;;;17.13;;
70535;SDS011;58089;48.752;11.338;2022-08-19T07:13:10;24.33;;;17.10;;
70535;SDS011;58089;48.752;11.338;2022-08-19T07:15:36;25.20;;;18.77;;
70535;SDS011;58089;48.752;11.338;2022-08-19T07:18:02;25.88;;;19.15;;
70535;SDS011;58089;48.752;11.338;2022-08-19T07:20:27;22.50;;;16.97;;
70535;SDS011;58089;48.752;11.338;2022-08-19T07:22:52;24.10;;;19.43;;
70535;SDS011;58089;48.752;11.338;2022-08-19T07:25:18;24.30;;;18.50;;
70535;SDS011;58089;48.752;11.338;2022-08-19T07:27:43;23.47;;;17.40;;
70535;SDS011;58089;48.752;11.338;2022-08-19T07:30:09;21.30;;;17.23;;
70535;SDS011;58089;48.752;11.338;2022-08-19T07:32:38;23.98;;;18.45;;
70535;SDS011;58089;48.752;11.338;2022-08-19T07:35:04;20.50;;;16.60;;
70535;SDS011;58089;48.752;11.338;2022-08-19T07:37:30;25.83;;;20.20;;
70535;SDS011;58089;48.752;11.338;2022-08-19T07:39:55;24.73;;;19.03;;
70535;SDS011;58089;48.752;11.338;2022-08-19T07:42:21;22.57;;;18.37;;
70535;SDS011;58089;48.752;11.338;2022-08-19T07:44:46;24.73;;;19.40;;
70535;SDS011;58089;48.752;11.338;2022-08-19T07:47:11;23.35;;;17.35;;
70535;SDS011;58089;48.752;11.338;2022-08-19T07:49:40;24.47;;;18.87;;
70535;SDS011;58089;48.752;11.338;2022-08-19T07:52:06;24.50;;;20.30;;
70535;SDS011;58089;48.752;11.338;2022-08-19T07:54:33;25.50;;;19.80;;
70535;SDS011;58089;48.752;11.338;2022-08-19T07:56:59;22.77;;;17.88;;
70535;SDS011;58089;48.752;11.338;2022-08-19T07:59:24;28.55;;;21.52;;
70535;SDS011;58089;48.752;11.338;2022-08-19T08:01:50;31.73;;;22.77;;
70535;SDS011;58089;48.752;11.338;2022-08-19T08:04:16;31.97;;;24.33;;
70535;SDS011;58089;48.752;11.338;2022-08-19T08:07:00;32.33;;;23.50;;
70535;SDS011;58089;48.752;11.338;2022-08-19T08:09:44;36.15;;;25.35;;
70535;SDS011;58089;48.752;11.338;2022-08-19T08:12:17;35.03;;;24.20;;
70535;SDS011;58089;48.752;11.338;2022-08-19T08:14:45;32.30;;;23.27;;
70535;SDS011;58089;48.752;11.338;2022-08-19T08:17:13;30.83;;;23.55;;
70535;SDS011;58089;48.752;11.338;2022-08-19T08:19:38;31.85;;;22.75;;
70535;SDS011;58089;48.752;11.338;2022-08-19T08:22:06;32.57;;;23.07;;
70535;SDS011;58089;48.752;11.338;2022-08-19T08:24:31;35.22;;;24.80;;
70535;SDS011;58089;48.752;11.338;2022-08-19T08:26:57;35.37;;;24.00;;
70535;SDS011;58089;48.752;11.338;2022-08-19T08:29:23;38.60;;;23.83;;
70535;SDS011;58089;48.752;11.338;2022-08-19T08:31:49;32.57;;;22.57;;
70535;SDS011;58089;48.752;11.338;2022-08-19T08:34:14;34.03;;;23.73;;
70535;SDS011;58089;48.752;11.338;2022-08-19T08:36:42;32.47;;;23.80;;
70535;SDS011;58089;48.752;11.338;2022-08-19T08:39:08;34.63;;;23.92;;
70535;SDS011;58089;48.752;11.338;2022-08-19T08:43:59;32.87;;;22.80;;
70535;SDS011;58089;48.752;11.338;2022-08-19T08:51:46;33.97;;;24.37;;
70535;SDS011;58089;48.752;11.338;2022-08-19T08:54:13;36.93;;;24.50;;
70535;SDS011;58089;48.752;11.338;2022-08-19T08:56:39;32.25;;;23.40;;
70535;SDS011;58089;48.752;11.338;2022-08-19T08:59:07;33.92;;;23.63;;
70535;SDS011;58089;48.752;11.338;2022-08-19T09:01:34;34.28;;;23.25;;
70535;SDS011;58089;48.752;11.338;2022-08-19T09:04:02;30.65;;;22.27;;
70535;SDS011;58089;48.752;11.338;2022-08-19T09:09:02;33.22;;;22.58;;
70535;SDS011;58089;48.752;11.338;2022-08-19T09:16:31;30.35;;;21.63;;
70535;SDS011;58089;48.752;11.338;2022-08-19T09:18:58;29.47;;;21.63;;
70535;SDS011;58089;48.752;11.338;2022-08-19T09:21:25;30.27;;;22.65;;
70535;SDS011;58089;48.752;11.338;2022-08-19T09:23:52;30.47;;;22.50;;
70535;SDS011;58089;48.752;11.338;2022-08-19T09:26:18;29.30;;;21.70;;
70535;SDS011;58089;48.752;11.338;2022-08-19T09:28:45;33.38;;;22.40;;
70535;SDS011;58089;48.752;11.338;2022-08-19T09:31:11;30.60;;;21.42;;
70535;SDS011;58089;48.752;11.338;2022-08-19T09:33:37;29.58;;;22.00;;
70535;SDS011;58089;48.752;11.338;2022-08-19T09:36:06;29.53;;;20.90;;
70535;SDS011;58089;48.752;11.338;2022-08-19T09:38:32;28.73;;;20.73;;
70535;SDS011;58089;48.752;11.338;2022-08-19T09:41:01;27.53;;;20.53;;
70535;SDS011;58089;48.752;11.338;2022-08-19T09:43:26;28.80;;;20.45;;
70535;SDS011;58089;48.752;11.338;2022-08-19T09:45:53;32.65;;;21.40;;
70535;SDS011;58089;48.752;11.338;2022-08-19T09:48:18;29.90;;;20.60;;
70535;SDS011;58089;48.752;11.338;2022-08-19T09:50:45;27.63;;;19.33;;
70535;SDS011;58089;48.752;11.338;2022-08-19T09:53:10;27.47;;;20.70;;
70535;SDS011;58089;48.752;11.338;2022-08-19T09:55:35;27.67;;;19.73;;
70535;SDS011;58089;48.752;11.338;2022-08-19T09:58:00;25.80;;;19.27;;
70535;SDS011;58089;48.752;11.338;2022-08-19T10:00:26;25.27;;;18.50;;
70535;SDS011;58089;48.752;11.338;2022-08-19T10:02:51;26.37;;;18.20;;
70535;SDS011;58089;48.752;11.338;2022-08-19T10:05:16;21.67;;;16.90;;
70535;SDS011;58089;48.752;11.338;2022-08-19T10:08:00;23.02;;;17.15;;
70535;SDS011;58089;48.752;11.338;2022-08-19T10:10:26;22.75;;;17.77;;
70535;SDS011;58089;48.752;11.338;2022-08-19T10:12:51;22.17;;;16.93;;
70535;SDS011;58089;48.752;11.338;2022-08-19T10:15:17;24.87;;;17.67;;
70535;SDS011;58089;48.752;11.338;2022-08-19T10:17:46;22.83;;;17.20;;
70535;SDS011;58089;48.752;11.338;2022-08-19T10:20:11;23.38;;;16.95;;
70535;SDS011;58089;48.752;11.338;2022-08-19T10:22:37;21.97;;;16.83;;
70535;SDS011;58089;48.752;11.338;2022-08-19T10:25:03;22.97;;;17.23;;
70535;SDS011;58089;48.752;11.338;2022-08-19T10:27:28;22.52;;;16.95;;
70535;SDS011;58089;48.752;11.338;2022-08-19T10:29:53;19.63;;;16.07;;
70535;SDS011;58089;48.752;11.338;2022-08-19T10:32:18;25.07;;;17.27;;
70535;SDS011;58089;48.752;11.338;2022-08-19T10:34:43;22.45;;;16.48;;
70535;SDS011;58089;48.752;11.338;2022-08-19T10:37:09;21.53;;;16.47;;
70535;SDS011;58089;48.752;11.338;2022-08-19T10:39:34;21.87;;;15.50;;
70535;SDS011;58089;48.752;11.338;2022-08-19T10:42:04;26.08;;;17.35;;
70535;SDS011;58089;48.752;11.338;2022-08-19T10:44:29;28.38;;;18.17;;
70535;SDS011;58089;48.752;11.338;2022-08-19T10:46:55;25.93;;;19.10;;
70535;SDS011;58089;48.752;11.338;2022-08-19T10:49:20;26.23;;;17.88;;
70535;SDS011;58089;48.752;11.338;2022-08-19T10:51:45;25.10;;;18.10;;
70535;SDS011;58089;48.752;11.338;2022-08-19T10:54:29;22.73;;;16.92;;
70535;SDS011;58089;48.752;11.338;2022-08-19T10:57:13;21.33;;;16.20;;
70535;SDS011;58089;48.752;11.338;2022-08-19T10:59:39;22.67;;;17.00;;
70535;SDS011;58089;48.752;11.338;2022-08-19T11:02:05;26.83;;;19.23;;
70535;SDS011;58089;48.752;11.338;2022-08-19T11:04:31;25.67;;;18.45;;
70535;SDS011;58089;48.752;11.338;2022-08-19T11:06:58;25.20;;;19.77;;
70535;SDS011;58089;48.752;11.338;2022-08-19T11:09:24;22.80;;;18.23;;
70535;SDS011;58089;48.752;11.338;2022-08-19T11:11:50;23.85;;;17.85;;
70535;SDS011;58089;48.752;11.338;2022-08-19T11:14:16;26.20;;;16.83;;
70535;SDS011;58089;48.752;11.338;2022-08-19T11:16:43;22.17;;;16.00;;
70535;SDS011;58089;48.752;11.338;2022-08-19T11:19:09;22.10;;;16.05;;
70535;SDS011;58089;48.752;11.338;2022-08-19T11:21:36;22.30;;;15.37;;
70535;SDS011;58089;48.752;11.338;2022-08-19T11:24:07;24.65;;;15.98;;
70535;SDS011;58089;48.752;11.338;2022-08-19T11:26:33;22.27;;;16.05;;
70535;SDS011;58089;48.752;11.338;2022-08-19T11:28:59;22.13;;;15.27;;
70535;SDS011;58089;48.752;11.338;2022-08-19T11:31:25;20.25;;;15.45;;
70535;SDS011;58089;48.752;11.338;2022-08-19T11:33:51;19.58;;;14.45;;
70535;SDS011;58089;48.752;11.338;2022-08-19T11:36:17;20.00;;;15.00;;
70535;SDS011;58089;48.752;11.338;2022-08-19T11:38:43;20.47;;;15.13;;
70535;SDS011;58089;48.752;11.338;2022-08-19T11:41:08;25.13;;;18.55;;
70535;SDS011;58089;48.752;11.338;2022-08-19T11:43:34;25.37;;;16.57;;
70535;SDS011;58089;48.752;11.338;2022-08-19T11:45:59;24.07;;;16.40;;
70535;SDS011;58089;48.752;11.338;2022-08-19T11:48:25;21.85;;;15.45;;
70535;SDS011;58089;48.752;11.338;2022-08-19T11:50:53;20.07;;;14.63;;
70535;SDS011;58089;48.752;11.338;2022-08-19T11:53:22;21.75;;;15.25;;
70535;SDS011;58089;48.752;11.338;2022-08-19T11:55:47;20.03;;;14.17;;
70535;SDS011;58089;48.752;11.338;2022-08-19T11:58:13;22.75;;;15.10;;
70535;SDS011;58089;48.752;11.338;2022-08-19T12:00:40;21.10;;;14.87;;
70535;SDS011;58089;48.752;11.338;2022-08-19T12:03:05;19.90;;;14.60;;
70535;SDS011;58089;48.752;11.338;2022-08-19T12:05:31;20.63;;;15.60;;
70535;SDS011;58089;48.752;11.338;2022-08-19T12:07:56;25.00;;;16.57;;
70535;SDS011;58089;48.752;11.338;2022-08-19T12:10:22;23.03;;;17.73;;
70535;SDS011;58089;48.752;11.338;2022-08-19T12:12:47;25.05;;;18.20;;
70535;SDS011;58089;48.752;11.338;2022-08-19T12:15:12;23.07;;;16.67;;
70535;SDS011;58089;48.752;11.338;2022-08-19T12:17:39;21.63;;;15.25;;
70535;SDS011;58089;48.752;11.338;2022-08-19T12:20:05;20.47;;;14.80;;
70535;SDS011;58089;48.752;11.338;2022-08-19T12:22:31;16.58;;;12.93;;
70535;SDS011;58089;48.752;11.338;2022-08-19T12:24:56;20.93;;;13.60;;
70535;SDS011;58089;48.752;11.338;2022-08-19T12:27:23;17.52;;;13.10;;
70535;SDS011;58089;48.752;11.338;2022-08-19T12:29:48;18.07;;;13.53;;
70535;SDS011;58089;48.752;11.338;2022-08-19T12:32:13;17.60;;;11.50;;
70535;SDS011;58089;48.752;11.338;2022-08-19T12:34:39;19.23;;;13.98;;
70535;SDS011;58089;48.752;11.338;2022-08-19T12:37:05;20.13;;;14.40;;
70535;SDS011;58089;48.752;11.338;2022-08-19T12:39:33;22.40;;;14.60;;
70535;SDS011;58089;48.752;11.338;2022-08-19T12:41:59;19.90;;;13.80;;
70535;SDS011;58089;48.752;11.338;2022-08-19T12:44:24;18.33;;;13.48;;
70535;SDS011;58089;48.752;11.338;2022-08-19T12:46:49;20.17;;;15.03;;
70535;SDS011;58089;48.752;11.338;2022-08-19T12:49:15;20.37;;;13.57;;
70535;SDS011;58089;48.752;11.338;2022-08-19T12:51:40;18.63;;;14.13;;
70535;SDS011;58089;48.752;11.338;2022-08-19T12:54:05;17.83;;;13.53;;
70535;SDS011;58089;48.752;11.338;2022-08-19T12:56:31;20.00;;;13.75;;
70535;SDS011;58089;48.752;11.338;2022-08-19T12:59:00;17.47;;;13.27;;
70535;SDS011;58089;48.752;11.338;2022-08-19T13:01:25;21.67;;;14.75;;
70535;SDS011;58089;48.752;11.338;2022-08-19T13:03:51;19.20;;;14.07;;
70535;SDS011;58089;48.752;11.338;2022-08-19T13:06:18;18.30;;;12.80;;
70535;SDS011;58089;48.752;11.338;2022-08-19T13:08:44;20.67;;;13.47;;
70535;SDS011;58089;48.752;11.338;2022-08-19T13:11:13;18.60;;;13.07;;
70535;SDS011;58089;48.752;11.338;2022-08-19T13:13:40;21.70;;;13.73;;
70535;SDS011;58089;48.752;11.338;2022-08-19T13:16:06;19.90;;;13.32;;
70535;SDS011;58089;48.752;11.338;2022-08-19T13:18:31;19.10;;;13.38;;
70535;SDS011;58089;48.752;11.338;2022-08-19T13:20:57;21.27;;;14.70;;
70535;SDS011;58089;48.752;11.338;2022-08-19T13:23:22;18.77;;;13.60;;
70535;SDS011;58089;48.752;11.338;2022-08-19T13:25:55;21.13;;;14.13;;
70535;SDS011;58089;48.752;11.338;2022-08-19T13:28:20;21.60;;;15.88;;
70535;SDS011;58089;48.752;11.338;2022-08-19T13:30:46;25.60;;;17.65;;
70535;SDS011;58089;48.752;11.338;2022-08-19T13:33:32;26.50;;;18.23;;
70535;SDS011;58089;48.752;11.338;2022-08-19T13:35:58;24.20;;;17.20;;
70535;SDS011;58089;48.752;11.338;2022-08-19T13:38:25;27.25;;;18.38;;
70535;SDS011;58089;48.752;11.338;2022-08-19T13:40:51;23.50;;;16.67;;
70535;SDS011;58089;48.752;11.338;2022-08-19T13:43:17;24.60;;;16.73;;
70535;SDS011;58089;48.752;11.338;2022-08-19T13:45:43;24.63;;;15.97;;
70535;SDS011;58089;48.752;11.338;2022-08-19T13:48:08;25.08;;;17.10;;
70535;SDS011;58089;48.752;11.338;2022-08-19T13:50:34;23.97;;;17.40;;
70535;SDS011;58089;48.752;11.338;2022-08-19T13:53:00;23.48;;;17.33;;
70535;SDS011;58089;48.752;11.338;2022-08-19T13:55:26;25.67;;;17.10;;
70535;SDS011;58089;48.752;11.338;2022-08-19T13:57:52;24.63;;;16.57;;
70535;SDS011;58089;48.752;11.338;2022-08-19T14:00:18;24.98;;;17.63;;
70535;SDS011;58089;48.752;11.338;2022-08-19T14:02:44;23.90;;;16.87;;
70535;SDS011;58089;48.752;11.338;2022-08-19T14:05:10;23.73;;;16.08;;
70535;SDS011;58089;48.752;11.338;2022-08-19T14:07:36;22.15;;;16.05;;
70535;SDS011;58089;48.752;11.338;2022-08-19T14:10:03;22.47;;;15.60;;
70535;SDS011;58089;48.752;11.338;2022-08-19T14:12:28;25.10;;;16.27;;
70535;SDS011;58089;48.752;11.338;2022-08-19T14:14:53;23.27;;;16.23;;
70535;SDS011;58089;48.752;11.338;2022-08-19T14:17:18;23.33;;;15.37;;
70535;SDS011;58089;48.752;11.338;2022-08-19T14:19:44;23.87;;;15.60;;
70535;SDS011;58089;48.752;11.338;2022-08-19T14:22:09;21.87;;;15.27;;